Brownhelm, Ohio
Current Conditions -  °F | °C
As of 9:53 PM on Friday 19 Dec 2014 (Local Time) from KLPR Reporting Station
Overcast Overcast  
Wind Chill: 29°   Ceiling: 2300
Heat Index: 29°   Visibility: 10mi
Dew Point: 22°   Wind: 3mph
Humidity: 75%   Direction: 40°NE
Pressure: 30.29"   Gusts: NA
Location:  41.3705°N, 82.2583°W
Report Text: KLPR 200253Z AUTO 04003KT 10SM OVC023 M02/M06 A3029 RMK AO2 SLP265 T10171056 58008 TSNO
Loading
Personal Weather Stations






























Interactive Weather Map New forecast layout! Learn more

10-Day Weather Forecast

Advertisements
Track Severe Weather on mobile